createdAt,value
2022-08-27T04:59:46.969Z,18.54
2022-08-27T05:00:51.388Z,18.77
2022-08-27T05:01:55.898Z,18.92
2022-08-27T05:03:00.251Z,19.03
2022-08-27T05:04:04.675Z,19.13
2022-08-27T05:05:11.173Z,19.21
2022-08-27T05:06:13.458Z,19.29
2022-08-27T05:07:17.878Z,19.37
2022-08-27T05:08:22.270Z,19.43
2022-08-27T05:09:26.899Z,19.50
2022-08-27T05:10:31.058Z,19.57
2022-08-27T05:11:35.439Z,19.62
2022-08-27T05:12:39.865Z,19.67
2022-08-27T05:13:44.244Z,19.71
2022-08-27T05:14:48.641Z,19.76
2022-08-27T05:15:53.061Z,19.79
2022-08-27T05:16:57.453Z,19.82
2022-08-27T05:18:01.860Z,19.83
2022-08-27T05:19:06.240Z,19.86
2022-08-27T05:20:10.711Z,19.90
2022-08-27T05:21:15.092Z,19.94
2022-08-27T05:22:19.504Z,20.00
2022-08-27T05:23:23.891Z,20.03
2022-08-27T05:24:28.273Z,20.06
2022-08-27T05:25:32.652Z,20.10
2022-08-27T05:26:37.052Z,20.14
2022-08-27T05:27:41.478Z,20.18
2022-08-27T05:28:45.864Z,20.22
2022-08-27T05:29:50.242Z,20.26
2022-08-27T05:30:56.023Z,20.30
2022-08-27T05:31:59.026Z,20.33
2022-08-27T05:33:03.415Z,20.36
2022-08-27T05:34:10.137Z,20.38
2022-08-27T05:35:15.569Z,20.39
2022-08-27T05:36:16.585Z,20.41
2022-08-27T05:37:21.022Z,20.42
2022-08-27T05:38:25.414Z,20.44
2022-08-27T05:39:29.798Z,20.45
2022-08-27T05:40:34.227Z,20.46
2022-08-27T05:41:38.578Z,20.48
2022-08-27T05:42:42.983Z,20.50
2022-08-27T05:43:50.238Z,20.51
2022-08-27T05:44:51.804Z,20.53
2022-08-27T05:45:56.201Z,20.55
2022-08-27T05:47:00.626Z,20.58
2022-08-27T05:48:05.005Z,20.61
2022-08-27T05:49:09.416Z,20.62
2022-08-27T05:50:13.785Z,20.64
2022-08-27T05:51:25.129Z,20.65
2022-08-27T05:52:22.599Z,20.66
2022-08-27T05:55:59.998Z,20.26
2022-08-27T05:57:04.770Z,20.45
2022-08-27T05:58:09.327Z,20.58
2022-08-27T05:59:13.673Z,20.64
2022-08-27T06:00:18.109Z,20.68
2022-08-27T06:01:22.541Z,20.71
2022-08-27T06:04:30.332Z,20.32
2022-08-27T06:05:34.797Z,20.50
2022-08-27T06:06:39.213Z,20.65
2022-08-27T06:07:43.681Z,20.72
2022-08-27T06:08:48.139Z,20.78
2022-08-27T06:09:52.591Z,20.81
2022-08-27T06:10:57.290Z,20.83
2022-08-27T06:12:01.774Z,20.84
2022-08-27T06:13:08.692Z,20.86
2022-08-27T06:14:13.161Z,20.88
2022-08-27T06:15:17.902Z,20.92
2022-08-27T06:16:26.179Z,20.95
2022-08-27T06:17:34.389Z,20.97
